| time (UTC) | temp C | wind direction | speed KPH | gust KPH | rain 1hr cm | rain 24hr cm | rain mn cm | humidity % | barometer mb |
| 20260508164016 | 13 | 270 | 12.9 | 19.3 | 0.00 | 0.00 | 0.00 | 49 | 1016.1 |
| 20260508163516 | 13 | 270 | 12.9 | 17.7 | 0.00 | 0.00 | 0.00 | 51 | 1016.1 |
| 20260508163036 | 13 | 270 | 14.5 | 17.7 | 0.00 | 0.00 | 0.00 | 51 | 1016.0 |
| 20260508162516 | 13 | 293 | 14.5 | 20.9 | 0.00 | 0.00 | 0.00 | 51 | 1016.0 |
| 20260508162016 | 13 | 270 | 12.9 | 20.9 | 0.00 | 0.00 | 0.00 | 50 | 1015.9 |
| 20260508161516 | 13 | 270 | 11.3 | 17.7 | 0.00 | 0.00 | 0.00 | 50 | 1016.0 |
| 20260508161036 | 13 | 270 | 12.9 | 19.3 | 0.00 | 0.00 | 0.00 | 49 | 1015.9 |
| 20260508160516 | 13 | 270 | 16.1 | 24.1 | 0.00 | 0.00 | 0.00 | 47 | 1015.9 |
| 20260508160016 | 13 | 270 | 9.7 | 12.9 | 0.00 | 0.00 | 0.00 | 48 | 1015.8 |
| 20260508155515 | 13 | 293 | 11.3 | 16.1 | 0.00 | 0.00 | 0.00 | 47 | 1015.9 |
| 20260508155016 | 13 | 270 | 9.7 | 14.5 | 0.00 | 0.00 | 0.00 | 46 | 1015.8 |
| 20260508154516 | 13 | 270 | 16.1 | 24.1 | 0.00 | 0.00 | 0.00 | 46 | 1015.8 |
| 20260508154015 | 13 | 270 | 19.3 | 25.7 | 0.00 | 0.00 | 0.00 | 46 | 1015.7 |
| 20260508153516 | 13 | 270 | 11.3 | 24.1 | 0.00 | 0.00 | 0.00 | 48 | 1015.7 |
| 20260508153016 | 13 | 248 | 11.3 | 20.9 | 0.00 | 0.00 | 0.00 | 46 | 1015.8 |
| 20260508152516 | 14 | 293 | 14.5 | 25.7 | 0.00 | 0.00 | 0.00 | 46 | 1015.8 |
| 20260508152015 | 14 | 270 | 12.9 | 27.4 | 0.00 | 0.00 | 0.00 | 47 | 1015.7 |
| 20260508151516 | 14 | 270 | 12.9 | 17.7 | 0.00 | 0.00 | 0.00 | 50 | 1015.7 |
| 20260508151035 | 14 | 270 | 17.7 | 27.4 | 0.00 | 0.00 | 0.00 | 50 | 1015.6 |
| 20260508150515 | 13 | 293 | 12.9 | 19.3 | 0.00 | 0.00 | 0.00 | 48 | 1015.6 |
| 20260508150016 | 13 | 293 | 14.5 | 24.1 | 0.00 | 0.00 | 0.00 | 48 | 1015.6 |
| 20260508145515 | 13 | 270 | 19.3 | 27.4 | 0.00 | 0.00 | 0.00 | 52 | 1015.6 |
| 20260508145036 | 13 | 293 | 19.3 | 27.4 | 0.00 | 0.00 | 0.00 | 50 | 1015.5 |
| 20260508144516 | 13 | 270 | 17.7 | 27.4 | 0.00 | 0.00 | 0.00 | 50 | 1015.5 |
| 20260508144056 | 13 | 270 | 17.7 | 25.7 | 0.00 | 0.00 | 0.00 | 51 | 1015.5 |
| 20260508143516 | 13 | 293 | 16.1 | 29.0 | 0.00 | 0.00 | 0.00 | 50 | 1015.5 |
| 20260508143016 | 13 | 293 | 20.9 | 32.2 | 0.00 | 0.00 | 0.00 | 52 | 1015.5 |
| 20260508142515 | 13 | 293 | 20.9 | 32.2 | 0.00 | 0.00 | 0.00 | 53 | 1015.5 |
| 20260508142015 | 13 | 293 | 11.3 | 19.3 | 0.00 | 0.00 | 0.00 | 52 | 1015.5 |
| 20260508141515 | 13 | 293 | 19.3 | 30.6 | 0.00 | 0.00 | 0.00 | 54 | 1015.5 |
| 20260508141015 | 13 | 293 | 22.5 | 32.2 | 0.00 | 0.00 | 0.00 | 54 | 1015.4 |
| 20260508140516 | 13 | 293 | 14.5 | 22.5 | 0.00 | 0.00 | 0.00 | 54 | 1015.4 |
| 20260508140015 | 13 | 293 | 20.9 | 27.4 | 0.00 | 0.00 | 0.00 | 57 | 1015.4 |
| 20260508135516 | 13 | 270 | 17.7 | 25.7 | 0.00 | 0.00 | 0.00 | 54 | 1015.3 |
| 20260508135016 | 13 | 293 | 17.7 | 24.1 | 0.00 | 0.00 | 0.00 | 53 | 1015.3 |
| 20260508134535 | 13 | 293 | 19.3 | 27.4 | 0.00 | 0.00 | 0.00 | 56 | 1015.3 |
| 20260508134016 | 13 | 293 | 20.9 | 25.7 | 0.00 | 0.00 | 0.00 | 57 | 1015.2 |
| 20260508133516 | 13 | 270 | 16.1 | 29.0 | 0.00 | 0.03 | 0.00 | 55 | 1015.1 |
| 20260508133015 | 13 | 270 | 17.7 | 27.4 | 0.00 | 0.03 | 0.00 | 56 | 1015.2 |
| 20260508132516 | 13 | 248 | 17.7 | 27.4 | 0.00 | 0.03 | 0.00 | 55 | 1015.2 |
| 20260508132015 | 13 | 248 | 16.1 | 25.7 | 0.00 | 0.03 | 0.00 | 58 | 1015.3 |
| 20260508131516 | 13 | 248 | 14.5 | 27.4 | 0.00 | 0.03 | 0.00 | 54 | 1015.2 |
| 20260508131036 | 13 | 248 | 22.5 | 32.2 | 0.00 | 0.03 | 0.00 | 58 | 1015.2 |
| 20260508130535 | 13 | 248 | 24.1 | 30.6 | 0.00 | 0.03 | 0.00 | 61 | 1015.2 |
| 20260508130036 | 13 | 225 | 22.5 | 30.6 | 0.00 | 0.03 | 0.00 | 58 | 1015.1 |
| 20260508125515 | 13 | 225 | 22.5 | 29.0 | 0.00 | 0.03 | 0.00 | 56 | 1015.1 |
| 20260508125015 | 13 | 225 | 20.9 | 30.6 | 0.00 | 0.03 | 0.00 | 61 | 1015.2 |
| 20260508124515 | 12 | 225 | 20.9 | 27.4 | 0.00 | 0.03 | 0.00 | 63 | 1015.1 |
| 20260508124015 | 12 | 248 | 24.1 | 30.6 | 0.00 | 0.03 | 0.00 | 62 | 1015.0 |
| 20260508123515 | 12 | 248 | 24.1 | 33.8 | 0.00 | 0.03 | 0.00 | 62 | 1014.9 |
| 20260508123015 | 12 | 248 | 22.5 | 32.2 | 0.00 | 0.03 | 0.00 | 63 | 1015.0 |
| 20260508122536 | 12 | 270 | 12.9 | 17.7 | 0.00 | 0.03 | 0.00 | 62 | 1015.0 |
| 20260508122015 | 12 | 293 | 12.9 | 20.9 | 0.00 | 0.03 | 0.00 | 62 | 1015.0 |
| 20260508121535 | 12 | 270 | 14.5 | 25.7 | 0.00 | 0.03 | 0.00 | 61 | 1015.0 |
| 20260508121015 | 13 | 248 | 19.3 | 30.6 | 0.00 | 0.03 | 0.00 | 60 | 1014.9 |
| 20260508120515 | 13 | 225 | 20.9 | 25.7 | 0.00 | 0.03 | 0.00 | 61 | 1014.9 |
| 20260508120016 | 13 | 225 | 20.9 | 29.0 | 0.00 | 0.03 | 0.00 | 57 | 1014.9 |
| 20260508115515 | 12 | 248 | 17.7 | 25.7 | 0.00 | 0.03 | 0.00 | 62 | 1014.9 |
| 20260508115035 | 12 | 270 | 17.7 | 29.0 | 0.00 | 0.03 | 0.00 | 61 | 1014.9 |
| 20260508114515 | 12 | 270 | 17.7 | 24.1 | 0.00 | 0.03 | 0.00 | 61 | 1014.8 |
| 20260508114035 | 12 | 270 | 17.7 | 25.7 | 0.00 | 0.03 | 0.00 | 63 | 1014.9 |
| 20260508113515 | 12 | 248 | 19.3 | 27.4 | 0.00 | 0.03 | 0.00 | 62 | 1014.9 |
| 20260508113015 | 12 | 270 | 20.9 | 27.4 | 0.00 | 0.03 | 0.00 | 63 | 1014.8 |
| 20260508112515 | 12 | 270 | 19.3 | 30.6 | 0.00 | 0.03 | 0.00 | 66 | 1014.8 |
| 20260508112015 | 11 | 293 | 12.9 | 20.9 | 0.00 | 0.03 | 0.00 | 63 | 1014.7 |
| 20260508111515 | 12 | 270 | 14.5 | 22.5 | 0.00 | 0.03 | 0.00 | 65 | 1014.8 |
| 20260508111035 | 12 | 270 | 19.3 | 25.7 | 0.00 | 0.03 | 0.00 | 68 | 1014.8 |
| 20260508110515 | 11 | 270 | 19.3 | 29.0 | 0.00 | 0.03 | 0.00 | 64 | 1014.6 |
| 20260508110015 | 11 | 270 | 20.9 | 27.4 | 0.00 | 0.03 | 0.00 | 63 | 1014.7 |
| 20260508105515 | 11 | 270 | 16.1 | 22.5 | 0.00 | 0.03 | 0.00 | 68 | 1014.7 |
| 20260508105035 | 12 | 293 | 16.1 | 30.6 | 0.00 | 0.03 | 0.00 | 65 | 1014.6 |
| 20260508104515 | 12 | 248 | 19.3 | 27.4 | 0.00 | 0.03 | 0.00 | 64 | 1014.6 |
| 20260508104015 | 12 | 225 | 22.5 | 30.6 | 0.00 | 0.03 | 0.00 | 63 | 1014.6 |
| 20260508103515 | 12 | 248 | 19.3 | 27.4 | 0.00 | 0.03 | 0.00 | 63 | 1014.6 |
| 20260508103015 | 12 | 225 | 20.9 | 27.4 | 0.00 | 0.03 | 0.00 | 61 | 1014.6 |
| 20260508102515 | 11 | 225 | 22.5 | 33.8 | 0.00 | 0.03 | 0.00 | 64 | 1014.6 |
| 20260508102015 | 11 | 248 | 16.1 | 25.7 | 0.00 | 0.03 | 0.00 | 64 | 1014.5 |
| 20260508101515 | 11 | 270 | 17.7 | 27.4 | 0.00 | 0.03 | 0.00 | 65 | 1014.4 |
| 20260508101015 | 11 | 270 | 19.3 | 25.7 | 0.00 | 0.03 | 0.00 | 65 | 1014.5 |
| 20260508100515 | 11 | 248 | 19.3 | 35.4 | 0.00 | 0.03 | 0.00 | 68 | 1014.4 |
| 20260508100035 | 11 | 270 | 19.3 | 30.6 | 0.00 | 0.03 | 0.00 | 65 | 1014.4 |
| 20260508095515 | 11 | 270 | 17.7 | 24.1 | 0.00 | 0.03 | 0.00 | 69 | 1014.4 |
| 20260508095015 | 11 | 248 | 12.9 | 24.1 | 0.00 | 0.03 | 0.00 | 74 | 1014.4 |
| 20260508094515 | 10 | 270 | 14.5 | 20.9 | 0.00 | 0.03 | 0.00 | 72 | 1014.4 |
| 20260508094015 | 10 | 270 | 11.3 | 14.5 | 0.00 | 0.03 | 0.00 | 74 | 1014.4 |
| 20260508093515 | 10 | 270 | 12.9 | 20.9 | 0.00 | 0.03 | 0.00 | 73 | 1014.5 |
| 20260508093015 | 10 | 270 | 14.5 | 20.9 | 0.00 | 0.03 | 0.00 | 74 | 1014.4 |
| 20260508092555 | 10 | 270 | 12.9 | 19.3 | 0.00 | 0.03 | 0.00 | 72 | 1014.4 |
| 20260508092015 | 10 | 248 | 14.5 | 19.3 | 0.00 | 0.03 | 0.00 | 72 | 1014.4 |
| 20260508091515 | 10 | 248 | 17.7 | 27.4 | 0.00 | 0.03 | 0.00 | 72 | 1014.4 |
| 20260508091017 | 10 | 248 | 14.5 | 20.9 | 0.00 | 0.03 | 0.00 | 73 | 1014.4 |
| 20260508090517 | 10 | 225 | 19.3 | 25.7 | 0.00 | 0.03 | 0.00 | 72 | 1014.3 |
| 20260508090017 | 10 | 225 | 17.7 | 25.7 | 0.00 | 0.03 | 0.00 | 75 | 1014.3 |
| 20260508085537 | 10 | 248 | 17.7 | 24.1 | 0.00 | 0.03 | 0.00 | 77 | 1014.3 |
| 20260508085017 | 10 | 225 | 19.3 | 27.4 | 0.00 | 0.03 | 0.00 | 73 | 1014.3 |
| 20260508084517 | 10 | 225 | 19.3 | 25.7 | 0.00 | 0.03 | 0.00 | 75 | 1014.3 |
| 20260508084017 | 10 | 225 | 19.3 | 24.1 | 0.00 | 0.03 | 0.00 | 75 | 1014.3 |
| 20260508083517 | 10 | 248 | 17.7 | 24.1 | 0.00 | 0.03 | 0.00 | 76 | 1014.2 |
| 20260508083017 | 10 | 248 | 17.7 | 24.1 | 0.00 | 0.03 | 0.00 | 75 | 1014.2 |
| 20260508082517 | 10 | 225 | 17.7 | 24.1 | 0.00 | 0.03 | 0.00 | 74 | 1014.2 |
| 20260508082017 | 10 | 248 | 17.7 | 20.9 | 0.00 | 0.03 | 0.00 | 76 | 1014.1 |
| 20260508081517 | 10 | 248 | 19.3 | 27.4 | 0.00 | 0.03 | 0.00 | 73 | 1014.1 |
| 20260508081017 | 10 | 248 | 16.1 | 22.5 | 0.00 | 0.03 | 0.00 | 77 | 1014.1 |
| 20260508080517 | 9 | 248 | 17.7 | 20.9 | 0.00 | 0.03 | 0.00 | 76 | 1014.0 |
| 20260508080015 | 9 | 248 | 19.3 | 25.7 | 0.00 | 0.03 | 0.00 | 77 | 1014.0 |
| 20260508075517 | 9 | 248 | 16.1 | 20.9 | 0.00 | 0.03 | 0.00 | 80 | 1014.0 |
| 20260508075017 | 9 | 248 | 14.5 | 22.5 | 0.00 | 0.03 | 0.00 | 82 | 1014.0 |
| 20260508074517 | 9 | 248 | 16.1 | 19.3 | 0.00 | 0.03 | 0.00 | 84 | 1013.9 |
| 20260508074017 | 8 | 248 | 12.9 | 17.7 | 0.00 | 0.03 | 0.00 | 83 | 1013.9 |
| 20260508073517 | 8 | 248 | 14.5 | 19.3 | 0.00 | 0.03 | 0.00 | 84 | 1013.8 |
| 20260508073017 | 8 | 248 | 14.5 | 19.3 | 0.00 | 0.03 | 0.00 | 85 | 1013.9 |
| 20260508072537 | 8 | 248 | 12.9 | 17.7 | 0.00 | 0.03 | 0.00 | 86 | 1013.8 |
| 20260508072017 | 8 | 225 | 11.3 | 12.9 | 0.00 | 0.03 | 0.00 | 87 | 1013.8 |
| 20260508071537 | 8 | 225 | 11.3 | 14.5 | 0.00 | 0.03 | 0.00 | 86 | 1013.8 |
| 20260508071017 | 8 | 225 | 12.9 | 14.5 | 0.00 | 0.03 | 0.00 | 86 | 1013.7 |
| 20260508070517 | 8 | 225 | 9.7 | 12.9 | 0.00 | 0.03 | 0.00 | 87 | 1013.6 |
| 20260508070037 | 8 | 225 | 9.7 | 12.9 | 0.00 | 0.03 | 0.00 | 88 | 1013.6 |
| 20260508065517 | 8 | 225 | 11.3 | 16.1 | 0.00 | 0.03 | 0.00 | 87 | 1013.6 |
| 20260508065017 | 8 | 225 | 12.9 | 16.1 | 0.00 | 0.03 | 0.00 | 88 | 1013.4 |
| 20260508064537 | 8 | 225 | 11.3 | 14.5 | 0.00 | 0.03 | 0.00 | 88 | 1013.3 |
| 20260508064017 | 8 | 225 | 9.7 | 12.9 | 0.00 | 0.03 | 0.00 | 88 | 1013.3 |
| 20260508063517 | 8 | 225 | 9.7 | 16.1 | 0.00 | 0.03 | 0.00 | 88 | 1013.2 |
| 20260508063017 | 8 | 225 | 9.7 | 14.5 | 0.00 | 0.03 | 0.00 | 88 | 1013.2 |
| 20260508062517 | 8 | 270 | 8.0 | 12.9 | 0.00 | 0.03 | 0.00 | 88 | 1013.2 |
| 20260508062017 | 8 | 248 | 8.0 | 11.3 | 0.00 | 0.03 | 0.00 | 89 | 1013.2 |
| 20260508061537 | 8 | 248 | 9.7 | 11.3 | 0.00 | 0.03 | 0.00 | 89 | 1013.1 |
| 20260508061017 | 7 | 248 | 9.7 | 12.9 | 0.00 | 0.03 | 0.00 | 89 | 1013.1 |
| 20260508060516 | 7 | 248 | 8.0 | 12.9 | 0.00 | 0.03 | 0.00 | 89 | 1012.9 |
| 20260508060017 | 7 | 248 | 12.9 | 16.1 | 0.00 | 0.03 | 0.00 | 89 | 1012.9 |
| 20260508055517 | 7 | 248 | 14.5 | 19.3 | 0.00 | 0.03 | 0.00 | 90 | 1012.8 |
| 20260508055017 | 7 | 248 | 16.1 | 19.3 | 0.00 | 0.03 | 0.00 | 90 | 1012.8 |
| 20260508054516 | 7 | 248 | 14.5 | 17.7 | 0.00 | 0.03 | 0.00 | 90 | 1012.8 |
| 20260508054017 | 7 | 248 | 14.5 | 17.7 | 0.00 | 0.03 | 0.00 | 90 | 1012.8 |
| 20260508053537 | 7 | 225 | 12.9 | 17.7 | 0.00 | 0.03 | 0.00 | 90 | 1012.7 |
| 20260508053037 | 7 | 225 | 14.5 | 19.3 | 0.00 | 0.03 | 0.00 | 90 | 1012.7 |
| 20260508052517 | 7 | 225 | 14.5 | 19.3 | 0.00 | 0.03 | 0.00 | 90 | 1012.5 |
| 20260508052017 | 7 | 225 | 14.5 | 17.7 | 0.00 | 0.03 | 0.00 | 90 | 1012.5 |
| 20260508051516 | 7 | 225 | 12.9 | 17.7 | 0.00 | 0.03 | 0.00 | 90 | 1012.4 |
| 20260508051016 | 7 | 225 | 11.3 | 14.5 | 0.00 | 0.03 | 0.00 | 90 | 1012.4 |
| 20260508050517 | 7 | 225 | 11.3 | 12.9 | 0.00 | 0.03 | 0.00 | 90 | 1012.4 |
| 20260508050017 | 7 | 225 | 9.7 | 11.3 | 0.00 | 0.03 | 0.00 | 90 | 1012.4 |
| 20260508045536 | 7 | 248 | 9.7 | 14.5 | 0.00 | 0.03 | 0.00 | 90 | 1012.4 |
| 20260508045017 | 7 | 248 | 9.7 | 11.3 | 0.00 | 0.03 | 0.00 | 90 | 1012.4 |
| 20260508044517 | 7 | 225 | 8.0 | 9.7 | 0.00 | 0.03 | 0.00 | 90 | 1012.2 |
| 20260508044017 | 7 | 225 | 6.4 | 8.0 | 0.00 | 0.03 | 0.00 | 90 | 1012.2 |
| 20260508043517 | 7 | 248 | 8.0 | 12.9 | 0.00 | 0.03 | 0.00 | 90 | 1012.2 |
| 20260508043017 | 7 | 248 | 6.4 | 9.7 | 0.00 | 0.03 | 0.00 | 90 | 1012.2 |
| 20260508042517 | 7 | 248 | 4.8 | 6.4 | 0.00 | 0.03 | 0.00 | 90 | 1012.2 |
| 20260508042016 | 7 | 248 | 4.8 | 6.4 | 0.00 | 0.03 | 0.00 | 90 | 1012.2 |
| 20260508041516 | 7 | 248 | 4.8 | 6.4 | 0.00 | 0.03 | 0.00 | 90 | 1012.2 |
| 20260508041016 | 7 | 248 | 4.8 | 6.4 | 0.00 | 0.03 | 0.00 | 90 | 1012.1 |
| 20260508040516 | 7 | 225 | 3.2 | 6.4 | 0.00 | 0.03 | 0.00 | 90 | 1012.0 |
| 20260508040016 | 7 | 248 | 4.8 | 4.8 | 0.00 | 0.03 | 0.00 | 90 | 1012.1 |
| 20260508035537 | 7 | 248 | 4.8 | 8.0 | 0.00 | 0.03 | 0.00 | 89 | 1011.9 |
| 20260508035036 | 7 | 248 | 6.4 | 9.7 | 0.00 | 0.03 | 0.00 | 89 | 1011.9 |
| 20260508034517 | 7 | 248 | 9.7 | 14.5 | 0.00 | 0.03 | 0.00 | 89 | 1011.9 |
| 20260508034016 | 7 | 248 | 9.7 | 16.1 | 0.00 | 0.03 | 0.00 | 89 | 1011.9 |
| 20260508033516 | 7 | 248 | 9.7 | 14.5 | 0.00 | 0.03 | 0.00 | 89 | 1011.9 |
| 20260508033016 | 7 | 248 | 11.3 | 19.3 | 0.00 | 0.03 | 0.00 | 89 | 1011.9 |
| 20260508032016 | 7 | 248 | 14.5 | 19.3 | 0.00 | 0.03 | 0.00 | 89 | 1011.9 |
| 20260508031516 | 7 | 248 | 12.9 | 19.3 | 0.00 | 0.03 | 0.00 | 89 | 1011.8 |
| 20260508031036 | 7 | 248 | 14.5 | 20.9 | 0.00 | 0.03 | 0.00 | 89 | 1011.9 |
| 20260508030536 | 7 | 248 | 14.5 | 17.7 | 0.00 | 0.03 | 0.00 | 89 | 1011.8 |
| 20260508030016 | 7 | 248 | 16.1 | 19.3 | 0.00 | 0.03 | 0.00 | 89 | 1011.7 |
| 20260508025516 | 7 | 248 | 17.7 | 20.9 | 0.00 | 0.03 | 0.00 | 89 | 1011.7 |
| 20260508025016 | 7 | 248 | 16.1 | 20.9 | 0.00 | 0.03 | 0.00 | 89 | 1011.6 |
| 20260508024516 | 7 | 248 | 17.7 | 22.5 | 0.00 | 0.03 | 0.00 | 89 | 1011.7 |
| 20260508024016 | 7 | 270 | 14.5 | 19.3 | 0.00 | 0.03 | 0.00 | 89 | 1011.7 |
| 20260508023520 | 7 | 248 | 17.7 | 22.5 | 0.00 | 0.03 | 0.00 | 89 | 1011.6 |
| 20260508023016 | 7 | 248 | 19.3 | 25.7 | 0.00 | 0.03 | 0.00 | 89 | 1011.6 |
| 20260508022516 | 7 | 248 | 17.7 | 22.5 | 0.00 | 0.03 | 0.00 | 89 | 1011.6 |
| 20260508022016 | 7 | 248 | 17.7 | 22.5 | 0.00 | 0.03 | 0.00 | 89 | 1011.6 |
| 20260508021517 | 7 | 248 | 16.1 | 24.1 | 0.00 | 0.03 | 0.00 | 89 | 1011.6 |
| 20260508021016 | 7 | 248 | 17.7 | 24.1 | 0.00 | 0.03 | 0.00 | 89 | 1011.6 |
| 20260508020516 | 7 | 248 | 17.7 | 24.1 | 0.00 | 0.03 | 0.00 | 89 | 1011.5 |
| 20260508020016 | 7 | 248 | 17.7 | 24.1 | 0.00 | 0.03 | 0.00 | 89 | 1011.4 |
| 20260508015516 | 7 | 248 | 17.7 | 22.5 | 0.00 | 0.03 | 0.00 | 88 | 1011.4 |
| 20260508015016 | 7 | 248 | 20.9 | 25.7 | 0.00 | 0.03 | 0.00 | 88 | 1011.5 |
| 20260508014516 | 7 | 248 | 20.9 | 27.4 | 0.00 | 0.03 | 0.00 | 88 | 1011.5 |
| 20260508014016 | 7 | 248 | 20.9 | 24.1 | 0.00 | 0.03 | 0.00 | 88 | 1011.4 |
| 20260508013516 | 7 | 248 | 19.3 | 24.1 | 0.00 | 0.03 | 0.00 | 87 | 1011.5 |
| 20260508013016 | 8 | 248 | 20.9 | 25.7 | 0.00 | 0.03 | 0.00 | 86 | 1011.5 |
| 20260508012516 | 8 | 248 | 20.9 | 30.6 | 0.00 | 0.03 | 0.00 | 85 | 1011.5 |
| 20260508012016 | 8 | 248 | 24.1 | 29.0 | 0.00 | 0.03 | 0.00 | 85 | 1011.5 |
| 20260508011536 | 8 | 248 | 24.1 | 32.2 | 0.00 | 0.03 | 0.00 | 85 | 1011.4 |
| 20260508011016 | 8 | 248 | 22.5 | 29.0 | 0.00 | 0.03 | 0.00 | 84 | 1011.4 |
| 20260508010516 | 8 | 248 | 20.9 | 25.7 | 0.00 | 0.03 | 0.00 | 82 | 1011.5 |
| 20260508010036 | 8 | 248 | 19.3 | 25.7 | 0.00 | 0.03 | 0.00 | 82 | 1011.5 |
| 20260508005516 | 8 | 248 | 16.1 | 24.1 | 0.00 | 0.03 | 0.00 | 82 | 1011.6 |
| 20260508005016 | 8 | 225 | 14.5 | 20.9 | 0.00 | 0.03 | 0.00 | 82 | 1011.6 |
| 20260508004516 | 8 | 225 | 14.5 | 20.9 | 0.00 | 0.03 | 0.00 | 82 | 1011.6 |
| 20260508004016 | 8 | 225 | 11.3 | 17.7 | 0.00 | 0.03 | 0.00 | 82 | 1011.6 |
| 20260508003536 | 8 | 248 | 14.5 | 22.5 | 0.00 | 0.03 | 0.00 | 82 | 1011.6 |
| 20260508003036 | 8 | 225 | 12.9 | 17.7 | 0.00 | 0.03 | 0.00 | 82 | 1011.6 |
| 20260508002516 | 8 | 225 | 16.1 | 20.9 | 0.00 | 0.03 | 0.00 | 82 | 1011.6 |
| 20260508002016 | 8 | 248 | 17.7 | 22.5 | 0.00 | 0.03 | 0.00 | 81 | 1011.5 |
| 20260508001516 | 8 | 248 | 16.1 | 22.5 | 0.00 | 0.03 | 0.00 | 82 | 1011.5 |
| 20260508001016 | 8 | 248 | 12.9 | 19.3 | 0.00 | 0.03 | 0.00 | 82 | 1011.6 |
| 20260508000516 | 8 | 248 | 9.7 | 17.7 | 0.00 | 0.03 | 0.00 | 82 | 1011.6 |
| 20260508000016 | 8 | 248 | 9.7 | 14.5 | 0.00 | 0.03 | 0.03 | 82 | 1011.5 |
| 20260507235516 | 8 | 248 | 11.3 | 16.1 | 0.00 | 0.03 | 0.03 | 82 | 1011.5 |
| 20260507235037 | 8 | 248 | 12.9 | 17.7 | 0.00 | 0.03 | 0.03 | 82 | 1011.5 |
| 20260507234536 | 8 | 248 | 11.3 | 14.5 | 0.00 | 0.03 | 0.03 | 82 | 1011.5 |
| 20260507234016 | 8 | 248 | 17.7 | 22.5 | 0.00 | 0.03 | 0.03 | 81 | 1011.5 |
| 20260507233516 | 8 | 248 | 16.1 | 22.5 | 0.00 | 0.03 | 0.03 | 82 | 1011.5 |
| 20260507233016 | 8 | 248 | 16.1 | 20.9 | 0.00 | 0.03 | 0.03 | 82 | 1011.5 |
| 20260507232516 | 8 | 248 | 17.7 | 22.5 | 0.00 | 0.03 | 0.03 | 81 | 1011.5 |
| 20260507232016 | 8 | 225 | 14.5 | 20.9 | 0.00 | 0.03 | 0.03 | 81 | 1011.5 |
| 20260507231516 | 9 | 248 | 14.5 | 22.5 | 0.00 | 0.03 | 0.03 | 81 | 1011.4 |
| 20260507231016 | 9 | 225 | 17.7 | 24.1 | 0.00 | 0.03 | 0.03 | 81 | 1011.5 |
| 20260507230517 | 9 | 248 | 14.5 | 20.9 | 0.00 | 0.03 | 0.03 | 81 | 1011.5 |
| 20260507230016 | 9 | 248 | 16.1 | 24.1 | 0.00 | 0.03 | 0.03 | 81 | 1011.5 |
| 20260507225516 | 9 | 248 | 16.1 | 29.0 | 0.00 | 0.03 | 0.03 | 81 | 1011.4 |
| 20260507225036 | 9 | 225 | 14.5 | 20.9 | 0.00 | 0.03 | 0.03 | 81 | 1011.5 |
| 20260507224537 | 9 | 248 | 14.5 | 19.3 | 0.00 | 0.03 | 0.03 | 81 | 1011.5 |
| 20260507224016 | 9 | 225 | 12.9 | 17.7 | 0.00 | 0.03 | 0.03 | 81 | 1011.5 |
| 20260507223536 | 9 | 225 | 11.3 | 16.1 | 0.00 | 0.03 | 0.03 | 81 | 1011.5 |
| 20260507223016 | 9 | 225 | 12.9 | 19.3 | 0.00 | 0.03 | 0.03 | 81 | 1011.5 |
| 20260507222516 | 9 | 225 | 11.3 | 16.1 | 0.00 | 0.03 | 0.03 | 81 | 1011.5 |
| 20260507222016 | 9 | 248 | 9.7 | 14.5 | 0.00 | 0.03 | 0.03 | 81 | 1011.4 |
| 20260507221516 | 9 | 248 | 9.7 | 12.9 | 0.00 | 0.03 | 0.03 | 81 | 1011.5 |
| 20260507221017 | 9 | 248 | 8.0 | 11.3 | 0.00 | 0.03 | 0.03 | 81 | 1011.5 |
| 20260507220516 | 9 | 248 | 9.7 | 12.9 | 0.00 | 0.03 | 0.03 | 80 | 1011.6 |
| 20260507220016 | 9 | 248 | 9.7 | 12.9 | 0.00 | 0.03 | 0.03 | 80 | 1011.5 |
| 20260507215516 | 9 | 248 | 11.3 | 12.9 | 0.00 | 0.03 | 0.03 | 79 | 1011.5 |
| 20260507215016 | 9 | 248 | 12.9 | 16.1 | 0.00 | 0.03 | 0.03 | 79 | 1011.5 |
| 20260507214536 | 9 | 248 | 12.9 | 17.7 | 0.00 | 0.03 | 0.03 | 78 | 1011.5 |
| 20260507214016 | 9 | 248 | 14.5 | 17.7 | 0.00 | 0.03 | 0.03 | 78 | 1011.5 |
| 20260507213516 | 9 | 248 | 14.5 | 17.7 | 0.00 | 0.03 | 0.03 | 77 | 1011.4 |
| 20260507213016 | 9 | 248 | 14.5 | 17.7 | 0.00 | 0.03 | 0.03 | 76 | 1011.4 |
| 20260507212536 | 9 | 248 | 9.7 | 14.5 | 0.00 | 0.03 | 0.03 | 76 | 1011.5 |
| 20260507212016 | 9 | 225 | 9.7 | 11.3 | 0.00 | 0.03 | 0.03 | 75 | 1011.4 |
| 20260507211516 | 9 | 225 | 11.3 | 14.5 | 0.00 | 0.03 | 0.03 | 74 | 1011.5 |
| 20260507211016 | 10 | 225 | 12.9 | 17.7 | 0.00 | 0.03 | 0.03 | 72 | 1011.4 |
| 20260507210516 | 10 | 203 | 14.5 | 19.3 | 0.00 | 0.03 | 0.03 | 71 | 1011.3 |
| 20260507210016 | 10 | 203 | 14.5 | 20.9 | 0.00 | 0.03 | 0.03 | 71 | 1011.4 |
| 20260507205516 | 10 | 203 | 14.5 | 19.3 | 0.00 | 0.03 | 0.03 | 71 | 1011.3 |
| 20260507205016 | 10 | 203 | 12.9 | 16.1 | 0.00 | 0.03 | 0.03 | 72 | 1011.2 |
| 20260507204516 | 10 | 203 | 12.9 | 19.3 | 0.00 | 0.03 | 0.03 | 72 | 1011.3 |
| 20260507204016 | 10 | 225 | 12.9 | 19.3 | 0.00 | 0.03 | 0.03 | 72 | 1011.4 |
| 20260507203516 | 10 | 225 | 11.3 | 16.1 | 0.00 | 0.03 | 0.03 | 71 | 1011.3 |
| 20260507203036 | 10 | 203 | 11.3 | 16.1 | 0.00 | 0.03 | 0.03 | 71 | 1011.2 |
| 20260507202536 | 10 | 203 | 11.3 | 17.7 | 0.00 | 0.03 | 0.03 | 72 | 1011.2 |
| 20260507202016 | 10 | 225 | 14.5 | 17.7 | 0.00 | 0.03 | 0.03 | 72 | 1011.1 |
| 20260507201516 | 10 | 225 | 14.5 | 19.3 | 0.00 | 0.03 | 0.03 | 72 | 1011.1 |
| 20260507201016 | 10 | 225 | 14.5 | 19.3 | 0.00 | 0.03 | 0.03 | 72 | 1011.1 |
| 20260507200516 | 10 | 225 | 14.5 | 16.1 | 0.00 | 0.03 | 0.03 | 72 | 1011.0 |
| 20260507200036 | 10 | 225 | 16.1 | 19.3 | 0.00 | 0.03 | 0.03 | 72 | 1010.9 |
| 20260507195516 | 10 | 225 | 16.1 | 19.3 | 0.00 | 0.03 | 0.03 | 70 | 1011.0 |
| 20260507195056 | 10 | 225 | 14.5 | 17.7 | 0.00 | 0.03 | 0.03 | 71 | 1011.0 |
| 20260507194516 | 10 | 248 | 12.9 | 16.1 | 0.00 | 0.03 | 0.03 | 71 | 1011.0 |
| 20260507194016 | 10 | 248 | 11.3 | 12.9 | 0.00 | 0.03 | 0.03 | 72 | 1010.9 |
| 20260507193516 | 10 | 248 | 11.3 | 17.7 | 0.00 | 0.03 | 0.03 | 72 | 1010.8 |
| 20260507193016 | 10 | 248 | 12.9 | 16.1 | 0.00 | 0.03 | 0.03 | 70 | 1010.9 |
| 20260507192516 | 10 | 248 | 14.5 | 17.7 | 0.00 | 0.03 | 0.03 | 70 | 1010.8 |
| 20260507192016 | 10 | 248 | 16.1 | 20.9 | 0.00 | 0.03 | 0.03 | 69 | 1010.7 |
| 20260507191516 | 10 | 248 | 14.5 | 19.3 | 0.00 | 0.03 | 0.03 | 69 | 1010.7 |
| 20260507191016 | 11 | 248 | 16.1 | 19.3 | 0.00 | 0.03 | 0.03 | 68 | 1010.7 |
| 20260507190516 | 11 | 248 | 20.9 | 25.7 | 0.00 | 0.03 | 0.03 | 68 | 1010.7 |
| 20260507190016 | 11 | 248 | 17.7 | 20.9 | 0.00 | 0.03 | 0.03 | 70 | 1010.7 |
| 20260507185516 | 11 | 248 | 17.7 | 25.7 | 0.00 | 0.03 | 0.03 | 70 | 1010.7 |
| 20260507185016 | 11 | 248 | 19.3 | 25.7 | 0.00 | 0.03 | 0.03 | 70 | 1010.7 |
| 20260507184516 | 11 | 248 | 17.7 | 22.5 | 0.00 | 0.03 | 0.03 | 71 | 1010.7 |
| 20260507184016 | 11 | 248 | 20.9 | 27.4 | 0.00 | 0.03 | 0.03 | 70 | 1010.7 |
| 20260507183516 | 11 | 225 | 19.3 | 25.7 | 0.00 | 0.03 | 0.03 | 70 | 1010.7 |
| 20260507183016 | 11 | 225 | 19.3 | 24.1 | 0.00 | 0.03 | 0.03 | 70 | 1010.7 |
| 20260507182516 | 11 | 225 | 17.7 | 24.1 | 0.00 | 0.03 | 0.03 | 70 | 1010.7 |
| 20260507182016 | 11 | 248 | 19.3 | 25.7 | 0.00 | 0.03 | 0.03 | 71 | 1010.7 |
| 20260507181516 | 11 | 248 | 19.3 | 29.0 | 0.00 | 0.03 | 0.03 | 72 | 1010.5 |
| 20260507181016 | 11 | 225 | 17.7 | 20.9 | 0.00 | 0.03 | 0.03 | 71 | 1010.7 |
| 20260507180516 | 11 | 225 | 19.3 | 24.1 | 0.00 | 0.03 | 0.03 | 72 | 1010.5 |
| 20260507180016 | 11 | 248 | 22.5 | 29.0 | 0.00 | 0.03 | 0.03 | 72 | 1010.5 |
| 20260507175516 | 11 | 225 | 19.3 | 29.0 | 0.00 | 0.03 | 0.03 | 72 | 1010.5 |
| 20260507175016 | 11 | 248 | 19.3 | 30.6 | 0.00 | 0.03 | 0.03 | 72 | 1010.5 |
| 20260507174516 | 11 | 225 | 22.5 | 30.6 | 0.00 | 0.03 | 0.03 | 72 | 1010.5 |
| 20260507174016 | 11 | 225 | 22.5 | 29.0 | 0.00 | 0.03 | 0.03 | 72 | 1010.5 |
| 20260507173536 | 11 | 225 | 22.5 | 27.4 | 0.00 | 0.03 | 0.03 | 72 | 1010.4 |
| 20260507173016 | 11 | 225 | 17.7 | 22.5 | 0.00 | 0.03 | 0.03 | 73 | 1010.4 |
| 20260507172516 | 11 | 225 | 19.3 | 25.7 | 0.00 | 0.03 | 0.03 | 73 | 1010.5 |
| 20260507172016 | 11 | 225 | 22.5 | 30.6 | 0.00 | 0.03 | 0.03 | 72 | 1010.5 |
| 20260507171516 | 11 | 225 | 24.1 | 32.2 | 0.00 | 0.03 | 0.03 | 72 | 1010.3 |
| 20260507171016 | 12 | 225 | 22.5 | 29.0 | 0.00 | 0.03 | 0.03 | 72 | 1010.4 |
| 20260507170516 | 12 | 225 | 20.9 | 25.7 | 0.00 | 0.03 | 0.03 | 72 | 1010.4 |
| 20260507170016 | 12 | 225 | 20.9 | 33.8 | 0.00 | 0.03 | 0.03 | 72 | 1010.5 |
| 20260507165516 | 12 | 225 | 22.5 | 29.0 | 0.00 | 0.03 | 0.03 | 74 | 1010.4 |
| 20260507165016 | 11 | 225 | 20.9 | 30.6 | 0.00 | 0.03 | 0.03 | 73 | 1010.5 |
| 20260507164516 | 11 | 225 | 19.3 | 25.7 | 0.00 | 0.03 | 0.03 | 73 | 1010.5 |